createdAt,value
2023-01-18T00:02:32.270Z,94.68
2023-01-18T00:05:15.626Z,93.18
2023-01-18T00:08:05.398Z,95.40
2023-01-18T00:10:47.984Z,93.65
2023-01-18T00:13:36.313Z,91.15
2023-01-18T00:16:21.030Z,91.53
2023-01-18T00:19:14.369Z,91.63
2023-01-18T00:22:02.704Z,88.93
2023-01-18T00:24:44.334Z,84.35
2023-01-18T00:27:26.630Z,84.72
2023-01-18T00:30:15.347Z,79.25
2023-01-18T00:32:59.912Z,69.40
2023-01-18T00:35:49.390Z,59.05
2023-01-18T00:38:32.253Z,50.45
2023-01-18T00:41:21.323Z,46.72
2023-01-18T00:44:03.598Z,42.13
2023-01-18T00:46:52.279Z,42.42
2023-01-18T00:49:47.304Z,41.03
2023-01-18T00:52:36.218Z,40.30
2023-01-18T00:55:18.754Z,43.30
2023-01-18T00:58:07.342Z,43.20
2023-01-18T01:00:49.697Z,40.13
2023-01-18T01:03:58.263Z,41.63
2023-01-18T01:06:46.140Z,42.80
2023-01-18T01:09:38.330Z,44.20
2023-01-18T01:12:39.047Z,46.25
2023-01-18T01:15:46.314Z,45.72
2023-01-18T01:18:53.376Z,46.60
2023-01-18T01:22:00.352Z,46.47
2023-01-18T01:25:02.073Z,49.63
2023-01-18T01:27:51.309Z,48.55
2023-01-18T01:30:33.621Z,51.30
2023-01-18T01:33:22.542Z,52.45
2023-01-18T01:36:12.628Z,48.22
2023-01-18T01:39:01.464Z,50.47
2023-01-18T01:41:43.596Z,50.40
2023-01-18T01:44:42.333Z,48.45
2023-01-18T01:47:35.654Z,49.55
2023-01-18T01:50:46.264Z,49.45
2023-01-18T01:53:35.262Z,50.55
2023-01-18T01:56:18.642Z,49.35
2023-01-18T01:59:09.276Z,49.00
2023-01-18T02:01:53.841Z,48.40
2023-01-18T02:04:43.369Z,49.40
2023-01-18T02:07:34.299Z,47.22
2023-01-18T02:10:17.422Z,46.25
2023-01-18T02:13:07.255Z,47.70
2023-01-18T02:16:07.391Z,48.92
2023-01-18T02:19:28.854Z,49.50
2023-01-18T02:22:55.597Z,48.90
2023-01-18T02:26:01.668Z,50.65
2023-01-18T02:28:59.261Z,47.28
2023-01-18T02:32:00.612Z,48.35
2023-01-18T02:34:52.234Z,49.88
2023-01-18T02:37:45.783Z,47.75
2023-01-18T02:41:06.339Z,48.60
2023-01-18T02:44:16.394Z,49.05
2023-01-18T02:47:22.277Z,48.42
2023-01-18T02:50:12.199Z,50.17
2023-01-18T02:52:55.443Z,53.60
2023-01-18T02:56:01.358Z,54.50
2023-01-18T02:58:59.372Z,55.75
2023-01-18T03:02:00.299Z,55.92
2023-01-18T03:05:02.302Z,57.90
2023-01-18T03:07:59.379Z,58.83
2023-01-18T03:10:47.964Z,62.00
2023-01-18T03:13:52.393Z,62.13
2023-01-18T03:17:01.721Z,60.58
2023-01-18T03:20:14.306Z,62.33
2023-01-18T03:23:28.817Z,65.15
2023-01-18T03:26:28.218Z,64.28
2023-01-18T03:29:37.329Z,62.60
2023-01-18T03:32:45.092Z,61.60
2023-01-18T03:35:34.320Z,68.53
2023-01-18T03:38:24.684Z,71.85
2023-01-18T03:41:09.249Z,73.30
2023-01-18T03:44:02.951Z,76.03
2023-01-18T03:46:47.176Z,77.63
2023-01-18T03:49:42.241Z,75.88
2023-01-18T03:52:34.313Z,73.45
2023-01-18T03:55:31.267Z,71.15
2023-01-18T03:58:25.265Z,67.22
2023-01-18T04:01:07.738Z,67.60
2023-01-18T04:03:56.331Z,70.68
2023-01-18T04:06:40.589Z,69.40
2023-01-18T04:09:29.259Z,64.85
2023-01-18T04:12:18.361Z,66.22
2023-01-18T04:15:06.561Z,66.82
2023-01-18T04:17:48.367Z,69.85
2023-01-18T04:20:36.608Z,66.25
2023-01-18T04:23:19.280Z,65.13
2023-01-18T04:26:01.556Z,66.00
2023-01-18T04:28:50.250Z,68.05
2023-01-18T04:31:39.395Z,67.50
2023-01-18T04:34:30.251Z,71.60
2023-01-18T04:37:18.569Z,70.40
2023-01-18T04:40:00.237Z,68.65
2023-01-18T04:42:48.596Z,68.85
2023-01-18T04:45:31.376Z,68.53
2023-01-18T04:48:20.105Z,69.78
2023-01-18T04:51:09.364Z,70.93
2023-01-18T04:53:52.692Z,71.18
2023-01-18T04:56:41.384Z,75.13
2023-01-18T04:59:24.697Z,73.75
2023-01-18T05:02:13.315Z,71.47
2023-01-18T05:04:55.757Z,72.68
2023-01-18T05:07:44.374Z,71.80
2023-01-18T05:10:26.558Z,71.25
2023-01-18T05:13:15.323Z,70.95
2023-01-18T05:15:57.630Z,70.45
2023-01-18T05:18:46.301Z,75.30
2023-01-18T05:21:29.634Z,71.63
2023-01-18T05:24:18.257Z,77.85
2023-01-18T05:27:00.578Z,72.22
2023-01-18T05:29:49.248Z,70.35
2023-01-18T05:32:31.565Z,69.25
2023-01-18T05:35:20.154Z,72.25
2023-01-18T05:38:02.609Z,71.25
2023-01-18T05:40:53.375Z,73.05
2023-01-18T05:43:36.696Z,71.80
2023-01-18T05:46:25.772Z,70.85
2023-01-18T05:49:07.676Z,73.22
2023-01-18T05:52:03.341Z,73.47
2023-01-18T05:54:51.577Z,74.03
2023-01-18T05:57:34.290Z,76.68
2023-01-18T06:00:16.997Z,75.13
2023-01-18T06:03:10.151Z,68.88
2023-01-18T06:06:00.295Z,69.75
2023-01-18T06:08:43.216Z,74.90
2023-01-18T06:11:38.343Z,77.30
2023-01-18T06:14:20.470Z,72.35
2023-01-18T06:17:09.250Z,70.72
2023-01-18T06:19:51.468Z,70.47
2023-01-18T06:22:40.331Z,65.10
2023-01-18T06:25:28.660Z,63.55
2023-01-18T06:28:12.302Z,60.38
2023-01-18T06:31:05.898Z,58.67
2023-01-18T06:33:47.374Z,60.73
2023-01-18T06:36:35.613Z,65.38
2023-01-18T06:39:17.307Z,64.47
2023-01-18T06:42:05.622Z,56.15
2023-01-18T06:44:48.307Z,56.38
2023-01-18T06:47:36.586Z,58.10
2023-01-18T06:50:32.245Z,59.88
2023-01-18T06:53:21.258Z,60.72
2023-01-18T06:56:11.359Z,63.60
2023-01-18T06:59:03.363Z,61.10
2023-01-18T07:01:45.732Z,59.95
2023-01-18T07:04:35.663Z,59.35
2023-01-18T07:07:24.245Z,58.65
2023-01-18T07:10:16.115Z,61.75
2023-01-18T07:12:58.844Z,61.65
2023-01-18T07:15:48.383Z,61.00
2023-01-18T07:18:31.601Z,58.80
2023-01-18T07:21:21.380Z,61.73
2023-01-18T07:24:04.600Z,61.97
2023-01-18T07:26:53.298Z,54.22
2023-01-18T07:29:35.613Z,61.35
2023-01-18T07:32:24.251Z,55.95
2023-01-18T07:35:06.564Z,51.20
2023-01-18T07:38:00.337Z,47.55
2023-01-18T07:40:42.550Z,45.20
2023-01-18T07:43:32.409Z,46.63
2023-01-18T07:46:21.521Z,47.47
2023-01-18T07:49:13.277Z,48.38
2023-01-18T07:52:08.613Z,43.90
2023-01-18T07:54:50.474Z,40.00
2023-01-18T07:57:39.308Z,34.75
2023-01-18T08:00:28.608Z,34.75
2023-01-18T08:03:10.447Z,29.67
2023-01-18T08:05:52.735Z,32.33
2023-01-18T08:08:42.402Z,32.80
2023-01-18T08:11:24.954Z,33.40
2023-01-18T08:14:14.256Z,32.45
2023-01-18T08:17:02.594Z,33.30
2023-01-18T08:19:45.249Z,31.95
2023-01-18T08:22:27.544Z,35.53
2023-01-18T08:25:16.420Z,34.35
2023-01-18T08:28:06.528Z,34.47
2023-01-18T08:30:52.353Z,32.47
2023-01-18T08:33:39.464Z,32.03
2023-01-18T08:36:31.314Z,30.58
2023-01-18T08:39:14.617Z,20.48
2023-01-18T08:42:03.222Z,19.52
2023-01-18T08:44:45.489Z,20.45
2023-01-18T08:47:34.292Z,21.52
2023-01-18T08:50:29.098Z,22.85
2023-01-18T08:53:19.585Z,27.00
2023-01-18T08:56:01.600Z,29.48
2023-01-18T08:58:50.371Z,31.65
2023-01-18T09:01:32.645Z,32.67
2023-01-18T09:04:21.276Z,31.77
2023-01-18T09:07:03.623Z,30.33
2023-01-18T09:09:53.277Z,31.65
2023-01-18T09:12:35.787Z,32.72
2023-01-18T09:15:26.361Z,31.02
2023-01-18T09:18:09.316Z,29.42
2023-01-18T09:20:59.350Z,32.03
2023-01-18T09:23:41.567Z,31.27
2023-01-18T09:26:30.282Z,30.27
2023-01-18T09:29:12.564Z,28.73
2023-01-18T09:32:03.359Z,34.20
2023-01-18T09:34:47.345Z,33.83
2023-01-18T09:37:36.377Z,34.45
2023-01-18T09:40:30.525Z,34.60
2023-01-18T09:43:32.355Z,39.60
2023-01-18T09:46:29.221Z,35.05
2023-01-18T09:49:29.248Z,34.05
2023-01-18T09:52:40.560Z,30.35
2023-01-18T09:55:25.293Z,30.27
2023-01-18T09:58:40.475Z,29.42
2023-01-18T10:01:34.401Z,30.83
2023-01-18T10:04:33.182Z,34.67
2023-01-18T10:07:28.338Z,36.30
2023-01-18T10:10:24.714Z,36.35
2023-01-18T10:13:32.296Z,36.63
2023-01-18T10:16:22.551Z,41.00
2023-01-18T10:19:09.498Z,44.92
2023-01-18T10:22:10.631Z,46.33
2023-01-18T10:25:22.285Z,41.88
2023-01-18T10:29:00.065Z,40.45
2023-01-18T10:32:00.168Z,38.22
2023-01-18T10:34:57.346Z,40.92
2023-01-18T10:37:50.117Z,39.85
2023-01-18T10:40:39.275Z,38.27
2023-01-18T10:43:22.756Z,36.10
2023-01-18T10:46:18.411Z,35.38
2023-01-18T10:49:03.721Z,32.35
2023-01-18T10:51:54.477Z,31.40
2023-01-18T10:54:36.600Z,28.98
2023-01-18T10:57:33.599Z,29.13
2023-01-18T11:00:31.748Z,29.50
2023-01-18T11:03:23.297Z,28.08
2023-01-18T11:06:24.149Z,28.70
2023-01-18T11:09:13.342Z,29.67
2023-01-18T11:12:13.948Z,30.20
2023-01-18T11:15:03.296Z,30.23
2023-01-18T11:17:47.271Z,29.48
2023-01-18T11:20:58.255Z,30.15
2023-01-18T11:23:49.281Z,30.45
2023-01-18T11:26:37.610Z,30.88
2023-01-18T11:29:23.195Z,30.05
2023-01-18T11:32:15.757Z,29.17
2023-01-18T11:35:01.317Z,29.58
2023-01-18T11:37:51.008Z,30.55
2023-01-18T11:40:36.323Z,29.05
2023-01-18T11:43:34.489Z,27.98
2023-01-18T11:47:11.218Z,29.30
2023-01-18T11:50:28.467Z,29.85
2023-01-18T11:53:29.576Z,30.00
2023-01-18T11:56:20.332Z,30.45
2023-01-18T11:59:11.601Z,32.05
2023-01-18T12:02:32.344Z,29.92
2023-01-18T12:05:32.705Z,29.23
2023-01-18T12:08:39.250Z,29.55
2023-01-18T12:11:48.338Z,28.05
2023-01-18T12:14:59.541Z,29.45
2023-01-18T12:18:35.297Z,30.35
2023-01-18T12:21:22.133Z,31.13
2023-01-18T12:24:38.332Z,32.65
2023-01-18T12:27:32.523Z,32.25
2023-01-18T12:30:27.318Z,31.77
2023-01-18T12:33:38.041Z,33.60
2023-01-18T12:37:01.179Z,32.28
2023-01-18T12:40:12.260Z,33.95
2023-01-18T12:43:13.469Z,32.90
2023-01-18T12:46:05.201Z,33.88
2023-01-18T12:49:29.335Z,34.35
2023-01-18T12:52:29.167Z,34.25
2023-01-18T12:55:26.170Z,33.92
2023-01-18T12:58:10.664Z,34.85
2023-01-18T13:01:07.294Z,34.38
2023-01-18T13:03:55.745Z,37.10
2023-01-18T13:06:47.160Z,36.63
2023-01-18T13:09:36.907Z,39.10
2023-01-18T13:12:26.311Z,40.75
2023-01-18T13:15:23.917Z,42.05
2023-01-18T13:18:30.329Z,43.20
2023-01-18T13:21:19.188Z,43.20
2023-01-18T13:24:26.242Z,52.90
2023-01-18T13:27:17.651Z,56.72
2023-01-18T13:30:17.268Z,56.20
2023-01-18T13:33:00.945Z,51.90
2023-01-18T13:36:02.305Z,52.58
2023-01-18T13:38:55.558Z,52.53
2023-01-18T13:41:44.176Z,55.97
2023-01-18T13:44:54.248Z,50.78
2023-01-18T13:47:48.235Z,55.83
2023-01-18T13:50:43.308Z,67.13
2023-01-18T13:53:32.599Z,81.40
2023-01-18T13:56:16.206Z,97.47
2023-01-18T13:59:23.156Z,106.10
2023-01-18T14:02:21.535Z,95.88
2023-01-18T14:05:21.044Z,85.57
2023-01-18T14:08:10.275Z,77.28
2023-01-18T14:11:01.227Z,63.95
2023-01-18T14:14:13.251Z,59.05
2023-01-18T14:17:08.169Z,58.85
2023-01-18T14:20:07.234Z,58.05
2023-01-18T14:23:11.984Z,58.35
2023-01-18T14:26:21.223Z,57.15
2023-01-18T14:29:13.201Z,54.97
2023-01-18T14:32:08.209Z,52.20
2023-01-18T14:35:11.594Z,50.47
2023-01-18T14:37:54.236Z,54.10
2023-01-18T14:40:43.525Z,52.05
2023-01-18T14:43:40.265Z,48.92
2023-01-18T14:46:28.215Z,51.10
2023-01-18T14:49:17.087Z,52.85
2023-01-18T14:52:17.183Z,52.13
2023-01-18T14:55:06.691Z,50.22
2023-01-18T14:57:48.149Z,49.83
2023-01-18T15:00:37.537Z,51.30
2023-01-18T15:03:32.071Z,51.75
2023-01-18T15:06:27.558Z,50.50
2023-01-18T15:09:13.229Z,50.90
2023-01-18T15:11:58.945Z,52.35
2023-01-18T15:14:51.239Z,51.22
2023-01-18T15:17:40.218Z,50.35
2023-01-18T15:20:23.679Z,50.65
2023-01-18T15:23:13.271Z,51.88
2023-01-18T15:25:59.939Z,51.15
2023-01-18T15:28:49.267Z,52.83
2023-01-18T15:31:31.736Z,51.47
2023-01-18T15:34:23.225Z,51.33
2023-01-18T15:37:08.948Z,52.13
2023-01-18T15:40:21.246Z,52.88
2023-01-18T15:43:20.266Z,54.92
2023-01-18T15:46:03.825Z,59.67
2023-01-18T15:49:13.213Z,66.13
2023-01-18T15:52:10.191Z,66.80
2023-01-18T15:54:58.514Z,63.47
2023-01-18T15:57:44.245Z,65.90
2023-01-18T16:00:29.861Z,62.35
2023-01-18T16:03:20.174Z,57.95
2023-01-18T16:06:19.883Z,58.25
2023-01-18T16:09:06.216Z,56.85
2023-01-18T16:12:02.260Z,56.55
2023-01-18T16:14:47.318Z,55.33
2023-01-18T16:17:38.283Z,54.47
2023-01-18T16:20:24.554Z,54.45
2023-01-18T16:23:27.213Z,52.78
2023-01-18T16:26:09.518Z,54.78
2023-01-18T16:28:58.227Z,53.03
2023-01-18T16:31:52.223Z,50.95
2023-01-18T16:34:34.499Z,50.10
2023-01-18T16:37:25.234Z,51.65
2023-01-18T16:40:07.443Z,49.13
2023-01-18T16:43:12.159Z,49.88
2023-01-18T16:46:04.354Z,50.50
2023-01-18T16:48:46.358Z,52.17
2023-01-18T16:51:36.245Z,54.17
2023-01-18T16:54:18.339Z,53.45
2023-01-18T16:57:07.250Z,53.90
2023-01-18T16:59:49.708Z,57.78
2023-01-18T17:02:38.208Z,56.88
2023-01-18T17:05:21.797Z,53.15
2023-01-18T17:08:10.224Z,55.35
2023-01-18T17:10:59.467Z,53.17
2023-01-18T17:13:41.217Z,56.65
2023-01-18T17:16:36.306Z,55.85
2023-01-18T17:19:27.439Z,56.13
2023-01-18T17:22:09.229Z,58.30
2023-01-18T17:24:58.711Z,55.37
2023-01-18T17:27:40.248Z,60.72
2023-01-18T17:30:31.269Z,59.40
2023-01-18T17:33:13.626Z,59.42
2023-01-18T17:38:50.653Z,56.85
2023-01-18T17:41:40.213Z,54.60
2023-01-18T17:44:36.849Z,57.35
2023-01-18T17:47:19.473Z,54.15
2023-01-18T17:50:08.223Z,55.85
2023-01-18T17:53:03.078Z,54.60
2023-01-18T17:55:52.264Z,56.80
2023-01-18T17:58:34.594Z,56.17
2023-01-18T18:01:25.404Z,54.42
2023-01-18T18:04:07.563Z,54.53
2023-01-18T18:07:00.187Z,55.80
2023-01-18T18:09:43.890Z,55.53
2023-01-18T18:12:33.165Z,55.63
2023-01-18T18:15:15.756Z,55.35
2023-01-18T18:18:05.564Z,56.95
2023-01-18T18:20:49.574Z,54.55
2023-01-18T18:23:39.214Z,56.75
2023-01-18T18:26:24.748Z,54.83
2023-01-18T18:29:13.218Z,55.50
2023-01-18T18:32:02.258Z,54.70
2023-01-18T18:34:44.589Z,58.20
2023-01-18T18:37:34.263Z,58.50
2023-01-18T18:40:20.028Z,56.05
2023-01-18T18:43:09.494Z,57.60
2023-01-18T18:45:51.590Z,58.35
2023-01-18T18:48:40.221Z,58.88
2023-01-18T18:51:23.698Z,58.88
2023-01-18T18:54:15.203Z,61.13
2023-01-18T18:56:57.417Z,58.70
2023-01-18T18:59:46.169Z,58.67
2023-01-18T19:02:28.513Z,59.53
2023-01-18T19:05:21.225Z,59.47
2023-01-18T19:08:03.686Z,60.75
2023-01-18T19:10:52.195Z,59.55
2023-01-18T19:13:34.746Z,58.63
2023-01-18T19:16:23.233Z,58.20
2023-01-18T19:19:12.247Z,56.85
2023-01-18T19:22:03.145Z,59.22
2023-01-18T19:24:52.156Z,58.05
2023-01-18T19:27:41.211Z,59.97
2023-01-18T19:30:27.230Z,61.97
2023-01-18T19:33:16.680Z,65.18
2023-01-18T19:36:00.175Z,67.55
2023-01-18T19:38:57.756Z,68.63
2023-01-18T19:41:41.196Z,68.97
2023-01-18T19:44:29.509Z,68.70
2023-01-18T19:47:11.194Z,72.70
2023-01-18T19:49:53.646Z,76.85
2023-01-18T19:52:42.215Z,80.45
2023-01-18T19:55:30.428Z,80.82
2023-01-18T19:58:14.165Z,82.68
2023-01-18T20:01:02.735Z,83.82
2023-01-18T20:03:45.172Z,78.50
2023-01-18T20:06:27.479Z,72.45
2023-01-18T20:09:19.799Z,67.10
2023-01-18T20:12:09.527Z,60.88
2023-01-18T20:14:53.220Z,57.35
2023-01-18T20:17:43.025Z,51.83
2023-01-18T20:20:32.484Z,47.88
2023-01-18T20:23:22.156Z,44.28
2023-01-18T20:26:04.493Z,41.22
2023-01-18T20:28:53.172Z,39.40
2023-01-18T20:31:35.594Z,36.67
2023-01-18T20:34:24.191Z,38.25
2023-01-18T20:37:06.661Z,34.05
2023-01-18T20:39:55.154Z,32.08
2023-01-18T20:42:44.175Z,31.40
2023-01-18T20:45:33.502Z,32.65
2023-01-18T20:48:15.322Z,32.58
2023-01-18T20:51:06.508Z,32.70
2023-01-18T20:53:55.275Z,32.55
2023-01-18T20:56:37.399Z,33.42
2023-01-18T20:59:27.239Z,33.22
2023-01-18T21:02:09.585Z,32.78
2023-01-18T21:04:58.141Z,31.17
2023-01-18T21:07:41.761Z,29.85
2023-01-18T21:10:31.265Z,29.15
2023-01-18T21:13:18.633Z,30.60
2023-01-18T21:16:08.526Z,28.50
2023-01-18T21:18:53.734Z,30.08
2023-01-18T21:21:42.157Z,29.20
2023-01-18T21:24:31.331Z,29.77
2023-01-18T21:27:13.708Z,29.52
2023-01-18T21:30:02.226Z,31.33
2023-01-18T21:32:44.612Z,32.38
2023-01-18T21:35:33.153Z,31.42
2023-01-18T21:38:24.172Z,33.17
2023-01-18T21:41:27.405Z,32.80
2023-01-18T21:44:35.708Z,32.33
2023-01-18T21:47:18.171Z,35.38
2023-01-18T21:50:24.943Z,32.63
2023-01-18T21:53:42.060Z,32.63
2023-01-18T21:56:31.180Z,34.03
2023-01-18T21:59:13.669Z,33.45
2023-01-18T22:02:02.251Z,34.63
2023-01-18T22:05:04.641Z,33.67
2023-01-18T22:07:53.007Z,33.33
2023-01-18T22:10:35.479Z,35.17
2023-01-18T22:13:24.145Z,36.50
2023-01-18T22:16:11.458Z,36.42
2023-01-18T22:19:00.101Z,37.00
2023-01-18T22:21:42.482Z,36.78
2023-01-18T22:24:31.211Z,37.30
2023-01-18T22:27:14.549Z,37.05
2023-01-18T22:30:03.238Z,36.33
2023-01-18T22:32:45.527Z,35.70
2023-01-18T22:35:34.131Z,37.35
2023-01-18T22:38:16.430Z,35.78
2023-01-18T22:41:16.132Z,36.95
2023-01-18T22:43:58.554Z,37.15
2023-01-18T22:46:47.058Z,35.75
2023-01-18T22:49:36.164Z,35.60
2023-01-18T22:52:30.965Z,34.50
2023-01-18T22:55:20.046Z,36.17
2023-01-18T22:58:02.776Z,36.95
2023-01-18T23:00:56.179Z,38.35
2023-01-18T23:03:46.142Z,35.85
2023-01-18T23:06:36.090Z,36.65
2023-01-18T23:09:26.137Z,36.80
2023-01-18T23:12:08.407Z,38.35
2023-01-18T23:15:15.074Z,36.83
2023-01-18T23:17:57.589Z,36.53
2023-01-18T23:20:47.106Z,38.03
2023-01-18T23:23:29.311Z,37.13
2023-01-18T23:26:18.132Z,36.33
2023-01-18T23:29:07.044Z,35.90
2023-01-18T23:31:57.523Z,35.65
2023-01-18T23:34:41.841Z,34.65
2023-01-18T23:37:31.066Z,34.33
2023-01-18T23:40:39.008Z,34.67
2023-01-18T23:43:39.872Z,37.00
2023-01-18T23:46:47.121Z,35.75
2023-01-18T23:49:47.869Z,36.00
2023-01-18T23:52:55.011Z,36.33
2023-01-18T23:55:37.561Z,39.00
2023-01-18T23:58:26.178Z,37.58
